sensor_id;sensor_type;location;lat;lon;timestamp;temperature;humidity
12849;DHT22;6493;50.928;7.172;2023-07-02T00:00:27;13.90;60.50
12849;DHT22;6493;50.928;7.172;2023-07-02T00:05:31;13.80;60.50
12849;DHT22;6493;50.928;7.172;2023-07-02T00:10:34;13.80;60.60
12849;DHT22;6493;50.928;7.172;2023-07-02T00:15:40;13.80;60.60
12849;DHT22;6493;50.928;7.172;2023-07-02T00:20:43;13.70;60.60
12849;DHT22;6493;50.928;7.172;2023-07-02T00:25:48;13.70;60.60
12849;DHT22;6493;50.928;7.172;2023-07-02T00:30:53;13.70;60.70
12849;DHT22;6493;50.928;7.172;2023-07-02T00:35:57;13.70;60.80
12849;DHT22;6493;50.928;7.172;2023-07-02T00:41:03;13.70;60.70
12849;DHT22;6493;50.928;7.172;2023-07-02T00:46:08;13.60;60.60
12849;DHT22;6493;50.928;7.172;2023-07-02T00:51:14;13.60;60.80
12849;DHT22;6493;50.928;7.172;2023-07-02T00:56:18;13.60;60.80
12849;DHT22;6493;50.928;7.172;2023-07-02T01:01:25;13.60;60.80
12849;DHT22;6493;50.928;7.172;2023-07-02T01:06:31;13.60;60.90
12849;DHT22;6493;50.928;7.172;2023-07-02T01:11:39;13.60;60.90
12849;DHT22;6493;50.928;7.172;2023-07-02T01:16:47;13.60;60.90
12849;DHT22;6493;50.928;7.172;2023-07-02T01:21:55;13.50;60.90
12849;DHT22;6493;50.928;7.172;2023-07-02T01:26:59;13.50;60.90
12849;DHT22;6493;50.928;7.172;2023-07-02T01:32:04;13.50;60.90
12849;DHT22;6493;50.928;7.172;2023-07-02T01:37:09;13.40;60.90
12849;DHT22;6493;50.928;7.172;2023-07-02T01:42:14;13.40;61.50
12849;DHT22;6493;50.928;7.172;2023-07-02T01:47:19;13.40;60.80
12849;DHT22;6493;50.928;7.172;2023-07-02T01:52:24;13.30;60.70
12849;DHT22;6493;50.928;7.172;2023-07-02T01:57:29;13.30;60.70
12849;DHT22;6493;50.928;7.172;2023-07-02T02:02:33;13.30;60.70
12849;DHT22;6493;50.928;7.172;2023-07-02T02:07:38;13.30;60.70
12849;DHT22;6493;50.928;7.172;2023-07-02T02:12:42;13.30;60.70
12849;DHT22;6493;50.928;7.172;2023-07-02T02:17:46;13.20;60.60
12849;DHT22;6493;50.928;7.172;2023-07-02T02:22:54;13.20;60.60
12849;DHT22;6493;50.928;7.172;2023-07-02T02:27:58;13.20;60.60
12849;DHT22;6493;50.928;7.172;2023-07-02T02:33:02;13.20;60.50
12849;DHT22;6493;50.928;7.172;2023-07-02T02:38:07;13.10;60.40
12849;DHT22;6493;50.928;7.172;2023-07-02T02:43:11;13.10;60.50
12849;DHT22;6493;50.928;7.172;2023-07-02T02:48:16;13.10;60.40
12849;DHT22;6493;50.928;7.172;2023-07-02T02:53:21;13.10;60.40
12849;DHT22;6493;50.928;7.172;2023-07-02T02:58:25;13.10;60.40
12849;DHT22;6493;50.928;7.172;2023-07-02T03:03:30;13.00;60.20
12849;DHT22;6493;50.928;7.172;2023-07-02T03:08:38;13.00;60.20
12849;DHT22;6493;50.928;7.172;2023-07-02T03:13:42;13.00;60.40
12849;DHT22;6493;50.928;7.172;2023-07-02T03:18:46;12.90;61.00
12849;DHT22;6493;50.928;7.172;2023-07-02T03:23:51;13.00;60.40
12849;DHT22;6493;50.928;7.172;2023-07-02T03:28:55;12.90;60.30
12849;DHT22;6493;50.928;7.172;2023-07-02T03:34:01;12.90;60.30
12849;DHT22;6493;50.928;7.172;2023-07-02T03:39:06;12.90;60.40
12849;DHT22;6493;50.928;7.172;2023-07-02T03:44:12;12.90;60.40
12849;DHT22;6493;50.928;7.172;2023-07-02T03:49:16;12.90;60.40
12849;DHT22;6493;50.928;7.172;2023-07-02T03:54:21;12.90;60.40
12849;DHT22;6493;50.928;7.172;2023-07-02T03:59:24;12.90;60.60
12849;DHT22;6493;50.928;7.172;2023-07-02T04:04:28;13.00;60.70
12849;DHT22;6493;50.928;7.172;2023-07-02T04:09:33;12.90;61.20
12849;DHT22;6493;50.928;7.172;2023-07-02T04:14:37;12.90;60.40
12849;DHT22;6493;50.928;7.172;2023-07-02T04:19:41;12.90;60.40
12849;DHT22;6493;50.928;7.172;2023-07-02T04:24:46;12.90;60.40
12849;DHT22;6493;50.928;7.172;2023-07-02T04:29:53;12.90;60.50
12849;DHT22;6493;50.928;7.172;2023-07-02T04:34:57;12.90;60.50
12849;DHT22;6493;50.928;7.172;2023-07-02T04:40:03;12.90;60.40
12849;DHT22;6493;50.928;7.172;2023-07-02T04:45:09;12.80;60.40
12849;DHT22;6493;50.928;7.172;2023-07-02T04:50:13;12.90;60.50
12849;DHT22;6493;50.928;7.172;2023-07-02T04:55:18;12.80;60.50
12849;DHT22;6493;50.928;7.172;2023-07-02T05:00:22;12.90;60.60
12849;DHT22;6493;50.928;7.172;2023-07-02T05:05:25;12.90;60.60
12849;DHT22;6493;50.928;7.172;2023-07-02T05:10:30;13.00;60.90
12849;DHT22;6493;50.928;7.172;2023-07-02T05:15:34;13.00;60.90
12849;DHT22;6493;50.928;7.172;2023-07-02T05:20:38;13.00;60.90
12849;DHT22;6493;50.928;7.172;2023-07-02T05:25:42;13.00;61.00
12849;DHT22;6493;50.928;7.172;2023-07-02T05:30:48;13.10;60.90
12849;DHT22;6493;50.928;7.172;2023-07-02T05:35:52;13.10;60.90
12849;DHT22;6493;50.928;7.172;2023-07-02T05:40:57;13.10;60.90
12849;DHT22;6493;50.928;7.172;2023-07-02T05:46:01;13.20;61.00
12849;DHT22;6493;50.928;7.172;2023-07-02T05:51:04;13.20;61.00
12849;DHT22;6493;50.928;7.172;2023-07-02T05:56:09;13.20;61.10
12849;DHT22;6493;50.928;7.172;2023-07-02T06:01:13;13.30;61.10
12849;DHT22;6493;50.928;7.172;2023-07-02T06:06:17;13.30;61.10
12849;DHT22;6493;50.928;7.172;2023-07-02T06:11:22;13.40;61.20
12849;DHT22;6493;50.928;7.172;2023-07-02T06:16:26;13.50;61.30
12849;DHT22;6493;50.928;7.172;2023-07-02T06:21:30;13.60;61.40
12849;DHT22;6493;50.928;7.172;2023-07-02T06:26:35;13.60;61.20
12849;DHT22;6493;50.928;7.172;2023-07-02T06:31:38;13.60;61.20
12849;DHT22;6493;50.928;7.172;2023-07-02T06:36:43;13.70;61.30
12849;DHT22;6493;50.928;7.172;2023-07-02T06:41:48;13.70;61.30
12849;DHT22;6493;50.928;7.172;2023-07-02T06:46:52;13.80;61.40
12849;DHT22;6493;50.928;7.172;2023-07-02T06:51:56;13.90;61.30
12849;DHT22;6493;50.928;7.172;2023-07-02T06:57:04;13.90;61.30
12849;DHT22;6493;50.928;7.172;2023-07-02T07:02:08;14.00;62.20
12849;DHT22;6493;50.928;7.172;2023-07-02T07:07:11;14.00;61.20
12849;DHT22;6493;50.928;7.172;2023-07-02T07:12:17;14.10;61.30
12849;DHT22;6493;50.928;7.172;2023-07-02T07:17:20;14.20;61.60
12849;DHT22;6493;50.928;7.172;2023-07-02T07:22:24;14.30;61.70
12849;DHT22;6493;50.928;7.172;2023-07-02T07:27:29;14.40;61.40
12849;DHT22;6493;50.928;7.172;2023-07-02T07:32:33;14.50;61.40
12849;DHT22;6493;50.928;7.172;2023-07-02T07:37:37;14.70;61.40
12849;DHT22;6493;50.928;7.172;2023-07-02T07:42:42;14.80;61.60
12849;DHT22;6493;50.928;7.172;2023-07-02T07:47:45;15.00;61.80
12849;DHT22;6493;50.928;7.172;2023-07-02T07:52:49;15.20;61.30
12849;DHT22;6493;50.928;7.172;2023-07-02T07:57:55;15.20;61.10
12849;DHT22;6493;50.928;7.172;2023-07-02T08:02:58;15.40;60.60
12849;DHT22;6493;50.928;7.172;2023-07-02T08:08:03;15.50;60.40
12849;DHT22;6493;50.928;7.172;2023-07-02T08:13:09;15.70;60.90
12849;DHT22;6493;50.928;7.172;2023-07-02T08:18:13;15.90;60.00
12849;DHT22;6493;50.928;7.172;2023-07-02T08:23:17;16.00;60.00
12849;DHT22;6493;50.928;7.172;2023-07-02T08:28:22;16.10;59.40
12849;DHT22;6493;50.928;7.172;2023-07-02T08:33:25;16.30;59.60
12849;DHT22;6493;50.928;7.172;2023-07-02T08:38:29;16.40;59.70
12849;DHT22;6493;50.928;7.172;2023-07-02T08:43:35;16.60;59.50
12849;DHT22;6493;50.928;7.172;2023-07-02T08:48:39;16.70;59.10
12849;DHT22;6493;50.928;7.172;2023-07-02T08:53:43;16.70;58.80
12849;DHT22;6493;50.928;7.172;2023-07-02T08:58:48;16.60;58.20
12849;DHT22;6493;50.928;7.172;2023-07-02T09:03:52;16.50;58.30
12849;DHT22;6493;50.928;7.172;2023-07-02T09:09:04;16.50;58.70
12849;DHT22;6493;50.928;7.172;2023-07-02T09:14:10;16.60;58.50
12849;DHT22;6493;50.928;7.172;2023-07-02T09:19:13;16.60;58.60
12849;DHT22;6493;50.928;7.172;2023-07-02T09:24:18;16.70;58.30
12849;DHT22;6493;50.928;7.172;2023-07-02T09:29:26;16.70;58.30
12849;DHT22;6493;50.928;7.172;2023-07-02T09:34:32;16.60;58.30
12849;DHT22;6493;50.928;7.172;2023-07-02T09:39:36;16.70;58.50
12849;DHT22;6493;50.928;7.172;2023-07-02T09:44:43;16.70;58.40
12849;DHT22;6493;50.928;7.172;2023-07-02T09:49:52;16.80;58.00
12849;DHT22;6493;50.928;7.172;2023-07-02T09:54:57;16.80;58.00
12849;DHT22;6493;50.928;7.172;2023-07-02T10:00:03;16.90;58.10
12849;DHT22;6493;50.928;7.172;2023-07-02T10:05:07;16.90;57.90
12849;DHT22;6493;50.928;7.172;2023-07-02T10:10:11;17.00;57.60
12849;DHT22;6493;50.928;7.172;2023-07-02T10:15:24;17.00;57.40
12849;DHT22;6493;50.928;7.172;2023-07-02T10:20:32;17.00;57.40
12849;DHT22;6493;50.928;7.172;2023-07-02T10:25:37;17.10;58.20
12849;DHT22;6493;50.928;7.172;2023-07-02T10:30:43;17.40;58.00
12849;DHT22;6493;50.928;7.172;2023-07-02T10:35:48;17.80;57.80
12849;DHT22;6493;50.928;7.172;2023-07-02T10:40:56;18.10;57.40
12849;DHT22;6493;50.928;7.172;2023-07-02T10:46:01;18.30;57.20
12849;DHT22;6493;50.928;7.172;2023-07-02T10:51:11;18.30;56.40
12849;DHT22;6493;50.928;7.172;2023-07-02T10:56:18;18.30;56.20
12849;DHT22;6493;50.928;7.172;2023-07-02T11:01:24;18.30;56.20
12849;DHT22;6493;50.928;7.172;2023-07-02T11:06:29;18.30;56.20
12849;DHT22;6493;50.928;7.172;2023-07-02T11:11:34;18.30;56.30
12849;DHT22;6493;50.928;7.172;2023-07-02T11:16:39;18.30;55.90
12849;DHT22;6493;50.928;7.172;2023-07-02T11:21:51;18.10;55.50
12849;DHT22;6493;50.928;7.172;2023-07-02T11:26:55;18.00;55.30
12849;DHT22;6493;50.928;7.172;2023-07-02T11:32:08;18.00;55.30
12849;DHT22;6493;50.928;7.172;2023-07-02T11:37:12;17.90;55.00
12849;DHT22;6493;50.928;7.172;2023-07-02T11:42:16;17.80;55.10
12849;DHT22;6493;50.928;7.172;2023-07-02T11:47:21;17.70;55.40
12849;DHT22;6493;50.928;7.172;2023-07-02T11:52:25;17.80;55.40
12849;DHT22;6493;50.928;7.172;2023-07-02T11:57:28;17.90;55.40
12849;DHT22;6493;50.928;7.172;2023-07-02T12:02:33;18.00;55.30
12849;DHT22;6493;50.928;7.172;2023-07-02T12:07:37;18.10;54.10
12849;DHT22;6493;50.928;7.172;2023-07-02T12:12:41;18.20;54.60
12849;DHT22;6493;50.928;7.172;2023-07-02T12:17:46;18.00;54.20
12849;DHT22;6493;50.928;7.172;2023-07-02T12:22:50;18.00;54.60
12849;DHT22;6493;50.928;7.172;2023-07-02T12:27:53;18.10;54.90
12849;DHT22;6493;50.928;7.172;2023-07-02T12:32:58;18.10;54.60
12849;DHT22;6493;50.928;7.172;2023-07-02T12:38:02;18.20;54.60
12849;DHT22;6493;50.928;7.172;2023-07-02T12:43:06;18.20;54.70
12849;DHT22;6493;50.928;7.172;2023-07-02T12:48:11;18.20;54.40
12849;DHT22;6493;50.928;7.172;2023-07-02T12:53:15;18.20;54.10
12849;DHT22;6493;50.928;7.172;2023-07-02T12:58:19;18.20;53.80
12849;DHT22;6493;50.928;7.172;2023-07-02T13:03:24;18.30;53.60
12849;DHT22;6493;50.928;7.172;2023-07-02T13:08:28;18.40;53.80
12849;DHT22;6493;50.928;7.172;2023-07-02T13:13:32;18.60;53.50
12849;DHT22;6493;50.928;7.172;2023-07-02T13:18:37;18.70;53.40
12849;DHT22;6493;50.928;7.172;2023-07-02T13:23:40;18.70;53.10
12849;DHT22;6493;50.928;7.172;2023-07-02T13:28:44;18.80;53.10
12849;DHT22;6493;50.928;7.172;2023-07-02T13:33:51;18.90;53.10
12849;DHT22;6493;50.928;7.172;2023-07-02T13:38:55;18.90;52.40
12849;DHT22;6493;50.928;7.172;2023-07-02T13:43:59;18.90;52.60
12849;DHT22;6493;50.928;7.172;2023-07-02T13:49:04;19.00;53.00
12849;DHT22;6493;50.928;7.172;2023-07-02T13:59:15;19.20;52.00
12849;DHT22;6493;50.928;7.172;2023-07-02T14:04:19;19.20;52.10
12849;DHT22;6493;50.928;7.172;2023-07-02T14:09:23;19.30;53.10
12849;DHT22;6493;50.928;7.172;2023-07-02T14:14:28;19.50;52.30
12849;DHT22;6493;50.928;7.172;2023-07-02T14:19:32;19.70;52.40
12849;DHT22;6493;50.928;7.172;2023-07-02T14:24:36;19.80;51.40
12849;DHT22;6493;50.928;7.172;2023-07-02T14:29:41;19.80;51.20
12849;DHT22;6493;50.928;7.172;2023-07-02T14:34:44;19.80;50.80
12849;DHT22;6493;50.928;7.172;2023-07-02T14:39:48;19.90;51.10
12849;DHT22;6493;50.928;7.172;2023-07-02T14:45:00;19.90;50.80
12849;DHT22;6493;50.928;7.172;2023-07-02T14:50:04;19.90;50.80
12849;DHT22;6493;50.928;7.172;2023-07-02T14:55:08;19.90;50.90
12849;DHT22;6493;50.928;7.172;2023-07-02T15:00:14;20.00;50.30
12849;DHT22;6493;50.928;7.172;2023-07-02T15:05:18;20.00;50.40
12849;DHT22;6493;50.928;7.172;2023-07-02T15:10:21;20.10;50.20
12849;DHT22;6493;50.928;7.172;2023-07-02T15:15:26;20.20;50.10
12849;DHT22;6493;50.928;7.172;2023-07-02T15:20:30;20.20;49.40
12849;DHT22;6493;50.928;7.172;2023-07-02T15:25:34;20.20;50.00
12849;DHT22;6493;50.928;7.172;2023-07-02T15:30:39;20.20;49.90
12849;DHT22;6493;50.928;7.172;2023-07-02T15:35:43;20.20;49.60
12849;DHT22;6493;50.928;7.172;2023-07-02T15:40:48;20.10;49.60
12849;DHT22;6493;50.928;7.172;2023-07-02T15:45:53;20.10;49.30
12849;DHT22;6493;50.928;7.172;2023-07-02T15:50:57;20.00;49.10
12849;DHT22;6493;50.928;7.172;2023-07-02T16:09:47;19.80;48.20
12849;DHT22;6493;50.928;7.172;2023-07-02T16:14:51;19.70;48.40
12849;DHT22;6493;50.928;7.172;2023-07-02T16:19:56;19.60;48.40
12849;DHT22;6493;50.928;7.172;2023-07-02T16:25:01;19.60;48.60
12849;DHT22;6493;50.928;7.172;2023-07-02T16:30:06;19.60;48.50
12849;DHT22;6493;50.928;7.172;2023-07-02T16:35:10;19.50;48.80
12849;DHT22;6493;50.928;7.172;2023-07-02T16:40:15;19.50;48.90
12849;DHT22;6493;50.928;7.172;2023-07-02T16:45:19;19.60;48.90
12849;DHT22;6493;50.928;7.172;2023-07-02T16:50:22;19.60;48.90
12849;DHT22;6493;50.928;7.172;2023-07-02T16:55:27;19.50;48.60
12849;DHT22;6493;50.928;7.172;2023-07-02T17:00:33;19.50;48.70
12849;DHT22;6493;50.928;7.172;2023-07-02T17:05:37;19.40;48.80
12849;DHT22;6493;50.928;7.172;2023-07-02T17:10:42;19.40;48.70
12849;DHT22;6493;50.928;7.172;2023-07-02T17:15:46;19.40;48.70
12849;DHT22;6493;50.928;7.172;2023-07-02T17:20:51;19.40;48.60
12849;DHT22;6493;50.928;7.172;2023-07-02T17:26:01;19.30;48.70
12849;DHT22;6493;50.928;7.172;2023-07-02T17:31:06;19.30;48.60
12849;DHT22;6493;50.928;7.172;2023-07-02T17:36:12;19.20;48.80
12849;DHT22;6493;50.928;7.172;2023-07-02T17:41:19;19.20;48.80
12849;DHT22;6493;50.928;7.172;2023-07-02T17:46:23;19.10;48.70
12849;DHT22;6493;50.928;7.172;2023-07-02T17:51:26;19.00;48.70
12849;DHT22;6493;50.928;7.172;2023-07-02T17:56:32;19.00;48.70
12849;DHT22;6493;50.928;7.172;2023-07-02T18:01:39;18.90;48.80
12849;DHT22;6493;50.928;7.172;2023-07-02T18:06:44;18.80;48.70
12849;DHT22;6493;50.928;7.172;2023-07-02T18:11:49;18.80;48.70
12849;DHT22;6493;50.928;7.172;2023-07-02T18:16:54;18.70;48.70
12849;DHT22;6493;50.928;7.172;2023-07-02T18:21:58;18.70;48.70
12849;DHT22;6493;50.928;7.172;2023-07-02T18:34:06;18.50;48.30
12849;DHT22;6493;50.928;7.172;2023-07-02T18:39:41;18.40;48.50
12849;DHT22;6493;50.928;7.172;2023-07-02T18:44:45;18.30;48.30
12849;DHT22;6493;50.928;7.172;2023-07-02T18:49:50;18.20;48.60
12849;DHT22;6493;50.928;7.172;2023-07-02T18:54:54;18.20;48.60
12849;DHT22;6493;50.928;7.172;2023-07-02T18:59:59;18.10;48.60
12849;DHT22;6493;50.928;7.172;2023-07-02T19:05:05;18.10;48.70
12849;DHT22;6493;50.928;7.172;2023-07-02T19:10:10;18.00;48.70
12849;DHT22;6493;50.928;7.172;2023-07-02T19:15:15;18.00;48.80
12849;DHT22;6493;50.928;7.172;2023-07-02T19:20:21;17.90;48.90
12849;DHT22;6493;50.928;7.172;2023-07-02T19:25:25;17.90;48.90
12849;DHT22;6493;50.928;7.172;2023-07-02T19:30:28;17.80;48.80
12849;DHT22;6493;50.928;7.172;2023-07-02T19:35:33;17.80;48.80
12849;DHT22;6493;50.928;7.172;2023-07-02T19:40:37;17.70;48.80
12849;DHT22;6493;50.928;7.172;2023-07-02T19:45:40;17.70;48.70
12849;DHT22;6493;50.928;7.172;2023-07-02T19:56:16;17.60;48.80
12849;DHT22;6493;50.928;7.172;2023-07-02T20:01:20;17.50;48.90
12849;DHT22;6493;50.928;7.172;2023-07-02T20:06:24;17.40;48.60
12849;DHT22;6493;50.928;7.172;2023-07-02T20:11:30;17.40;48.70
12849;DHT22;6493;50.928;7.172;2023-07-02T20:16:34;17.30;48.70
12849;DHT22;6493;50.928;7.172;2023-07-02T20:21:37;17.30;48.80
12849;DHT22;6493;50.928;7.172;2023-07-02T20:26:44;17.20;48.80
12849;DHT22;6493;50.928;7.172;2023-07-02T20:31:48;17.20;48.80
12849;DHT22;6493;50.928;7.172;2023-07-02T20:36:53;17.20;48.90
12849;DHT22;6493;50.928;7.172;2023-07-02T20:41:58;17.20;48.90
12849;DHT22;6493;50.928;7.172;2023-07-02T20:47:03;17.20;48.90
12849;DHT22;6493;50.928;7.172;2023-07-02T20:52:08;17.10;48.80
12849;DHT22;6493;50.928;7.172;2023-07-02T20:57:13;17.10;48.80
12849;DHT22;6493;50.928;7.172;2023-07-02T21:02:17;17.00;48.80
12849;DHT22;6493;50.928;7.172;2023-07-02T21:07:22;17.00;48.90
12849;DHT22;6493;50.928;7.172;2023-07-02T21:12:27;17.00;48.90
12849;DHT22;6493;50.928;7.172;2023-07-02T21:17:31;16.90;48.90
12849;DHT22;6493;50.928;7.172;2023-07-02T21:22:35;16.90;48.90
12849;DHT22;6493;50.928;7.172;2023-07-02T21:27:40;16.90;49.00
12849;DHT22;6493;50.928;7.172;2023-07-02T21:32:46;16.80;48.80
12849;DHT22;6493;50.928;7.172;2023-07-02T21:37:50;16.80;48.90
12849;DHT22;6493;50.928;7.172;2023-07-02T21:42:55;16.70;48.80
12849;DHT22;6493;50.928;7.172;2023-07-02T21:47:59;16.70;48.80
12849;DHT22;6493;50.928;7.172;2023-07-02T21:53:03;16.60;48.60
12849;DHT22;6493;50.928;7.172;2023-07-02T21:58:08;16.60;48.30
12849;DHT22;6493;50.928;7.172;2023-07-02T22:03:12;16.40;48.30
12849;DHT22;6493;50.928;7.172;2023-07-02T22:08:16;16.30;48.80
12849;DHT22;6493;50.928;7.172;2023-07-02T22:13:21;16.20;47.60
12849;DHT22;6493;50.928;7.172;2023-07-02T22:18:25;16.00;47.30
12849;DHT22;6493;50.928;7.172;2023-07-02T22:23:30;15.90;47.50
12849;DHT22;6493;50.928;7.172;2023-07-02T22:28:35;15.80;47.40
12849;DHT22;6493;50.928;7.172;2023-07-02T22:33:38;15.60;47.10
12849;DHT22;6493;50.928;7.172;2023-07-02T22:38:42;15.40;47.40
12849;DHT22;6493;50.928;7.172;2023-07-02T22:43:47;15.30;47.30
12849;DHT22;6493;50.928;7.172;2023-07-02T22:48:51;15.20;47.40
12849;DHT22;6493;50.928;7.172;2023-07-02T22:53:54;15.10;47.20
12849;DHT22;6493;50.928;7.172;2023-07-02T22:58:59;15.00;47.10
12849;DHT22;6493;50.928;7.172;2023-07-02T23:04:03;14.90;47.10
12849;DHT22;6493;50.928;7.172;2023-07-02T23:09:07;14.80;47.00
12849;DHT22;6493;50.928;7.172;2023-07-02T23:14:12;14.60;47.00
12849;DHT22;6493;50.928;7.172;2023-07-02T23:19:16;14.60;47.10
12849;DHT22;6493;50.928;7.172;2023-07-02T23:24:20;14.50;47.20
12849;DHT22;6493;50.928;7.172;2023-07-02T23:29:25;14.40;47.10
12849;DHT22;6493;50.928;7.172;2023-07-02T23:34:29;14.20;47.10
12849;DHT22;6493;50.928;7.172;2023-07-02T23:39:41;14.20;47.20
12849;DHT22;6493;50.928;7.172;2023-07-02T23:44:47;14.10;47.20
12849;DHT22;6493;50.928;7.172;2023-07-02T23:49:51;14.00;47.30
12849;DHT22;6493;50.928;7.172;2023-07-02T23:54:55;14.00;47.40
